sensor_id;sensor_type;location;lat;lon;timestamp;P1;durP1;ratioP1;P2;durP2;ratioP2
67640;SDS011;54434;50.096;20.082;2023-09-19T00:01:28;18.70;;;12.60;;
67640;SDS011;54434;50.096;20.082;2023-09-19T00:04:06;16.90;;;12.30;;
67640;SDS011;54434;50.096;20.082;2023-09-19T00:06:43;18.50;;;12.70;;
67640;SDS011;54434;50.096;20.082;2023-09-19T00:09:20;22.10;;;13.10;;
67640;SDS011;54434;50.096;20.082;2023-09-19T00:12:00;16.40;;;11.60;;
67640;SDS011;54434;50.096;20.082;2023-09-19T00:14:37;21.00;;;12.60;;
67640;SDS011;54434;50.096;20.082;2023-09-19T00:17:14;15.90;;;11.60;;
67640;SDS011;54434;50.096;20.082;2023-09-19T00:19:50;18.40;;;11.90;;
67640;SDS011;54434;50.096;20.082;2023-09-19T00:22:27;17.70;;;12.10;;
67640;SDS011;54434;50.096;20.082;2023-09-19T00:25:04;18.60;;;12.20;;
67640;SDS011;54434;50.096;20.082;2023-09-19T00:27:42;16.50;;;12.10;;
67640;SDS011;54434;50.096;20.082;2023-09-19T00:30:18;18.80;;;12.50;;
67640;SDS011;54434;50.096;20.082;2023-09-19T00:32:57;17.70;;;11.80;;
67640;SDS011;54434;50.096;20.082;2023-09-19T00:35:36;16.40;;;12.10;;
67640;SDS011;54434;50.096;20.082;2023-09-19T00:38:13;18.30;;;12.10;;
67640;SDS011;54434;50.096;20.082;2023-09-19T00:40:51;17.50;;;11.70;;
67640;SDS011;54434;50.096;20.082;2023-09-19T00:43:33;18.30;;;11.60;;
67640;SDS011;54434;50.096;20.082;2023-09-19T00:46:09;21.20;;;11.90;;
67640;SDS011;54434;50.096;20.082;2023-09-19T00:48:46;17.40;;;11.90;;
67640;SDS011;54434;50.096;20.082;2023-09-19T00:51:24;18.90;;;11.30;;
67640;SDS011;54434;50.096;20.082;2023-09-19T00:54:01;16.30;;;11.70;;
67640;SDS011;54434;50.096;20.082;2023-09-19T00:56:40;20.40;;;12.10;;
67640;SDS011;54434;50.096;20.082;2023-09-19T00:59:18;17.20;;;11.80;;
67640;SDS011;54434;50.096;20.082;2023-09-19T01:01:56;21.10;;;12.70;;
67640;SDS011;54434;50.096;20.082;2023-09-19T01:04:33;16.30;;;11.70;;
67640;SDS011;54434;50.096;20.082;2023-09-19T01:07:11;17.10;;;11.50;;
67640;SDS011;54434;50.096;20.082;2023-09-19T01:09:48;19.40;;;12.10;;
67640;SDS011;54434;50.096;20.082;2023-09-19T01:12:43;18.30;;;11.50;;
67640;SDS011;54434;50.096;20.082;2023-09-19T01:15:37;19.00;;;12.30;;
67640;SDS011;54434;50.096;20.082;2023-09-19T01:18:34;22.00;;;12.10;;
67640;SDS011;54434;50.096;20.082;2023-09-19T01:21:26;20.60;;;12.90;;
67640;SDS011;54434;50.096;20.082;2023-09-19T01:24:41;22.70;;;13.60;;
67640;SDS011;54434;50.096;20.082;2023-09-19T01:28:01;25.50;;;15.30;;
67640;SDS011;54434;50.096;20.082;2023-09-19T01:30:56;27.50;;;15.60;;
67640;SDS011;54434;50.096;20.082;2023-09-19T01:33:56;30.60;;;16.00;;
67640;SDS011;54434;50.096;20.082;2023-09-19T01:36:36;28.50;;;16.90;;
67640;SDS011;54434;50.096;20.082;2023-09-19T01:39:14;27.00;;;16.20;;
67640;SDS011;54434;50.096;20.082;2023-09-19T01:42:07;25.70;;;17.00;;
67640;SDS011;54434;50.096;20.082;2023-09-19T01:44:59;27.80;;;17.50;;
67640;SDS011;54434;50.096;20.082;2023-09-19T01:47:50;29.90;;;18.10;;
67640;SDS011;54434;50.096;20.082;2023-09-19T01:50:36;25.30;;;16.80;;
67640;SDS011;54434;50.096;20.082;2023-09-19T01:53:23;27.10;;;17.80;;
67640;SDS011;54434;50.096;20.082;2023-09-19T01:56:05;26.70;;;18.00;;
67640;SDS011;54434;50.096;20.082;2023-09-19T01:58:50;27.00;;;18.30;;
67640;SDS011;54434;50.096;20.082;2023-09-19T02:01:32;27.30;;;18.70;;
67640;SDS011;54434;50.096;20.082;2023-09-19T02:04:10;28.30;;;19.40;;
67640;SDS011;54434;50.096;20.082;2023-09-19T02:06:47;31.70;;;18.90;;
67640;SDS011;54434;50.096;20.082;2023-09-19T02:09:25;27.80;;;19.70;;
67640;SDS011;54434;50.096;20.082;2023-09-19T02:14:39;28.00;;;18.80;;
67640;SDS011;54434;50.096;20.082;2023-09-19T02:17:15;28.20;;;20.00;;
67640;SDS011;54434;50.096;20.082;2023-09-19T02:19:53;34.20;;;20.50;;
67640;SDS011;54434;50.096;20.082;2023-09-19T02:22:30;32.30;;;22.00;;
67640;SDS011;54434;50.096;20.082;2023-09-19T02:25:08;33.80;;;21.80;;
67640;SDS011;54434;50.096;20.082;2023-09-19T02:27:47;34.10;;;24.00;;
67640;SDS011;54434;50.096;20.082;2023-09-19T02:30:29;33.60;;;23.00;;
67640;SDS011;54434;50.096;20.082;2023-09-19T02:33:07;34.30;;;23.30;;
67640;SDS011;54434;50.096;20.082;2023-09-19T02:35:44;34.80;;;22.80;;
67640;SDS011;54434;50.096;20.082;2023-09-19T02:38:20;34.50;;;23.00;;
67640;SDS011;54434;50.096;20.082;2023-09-19T02:40:58;32.30;;;21.10;;
67640;SDS011;54434;50.096;20.082;2023-09-19T02:43:35;28.00;;;20.30;;
67640;SDS011;54434;50.096;20.082;2023-09-19T02:46:13;32.10;;;21.10;;
67640;SDS011;54434;50.096;20.082;2023-09-19T02:48:51;30.90;;;21.40;;
67640;SDS011;54434;50.096;20.082;2023-09-19T02:51:28;33.20;;;22.20;;
67640;SDS011;54434;50.096;20.082;2023-09-19T02:54:06;33.90;;;22.40;;
67640;SDS011;54434;50.096;20.082;2023-09-19T02:56:44;34.40;;;22.60;;
67640;SDS011;54434;50.096;20.082;2023-09-19T02:59:21;36.30;;;23.40;;
67640;SDS011;54434;50.096;20.082;2023-09-19T03:01:58;46.10;;;27.10;;
67640;SDS011;54434;50.096;20.082;2023-09-19T03:04:37;49.00;;;30.60;;
67640;SDS011;54434;50.096;20.082;2023-09-19T03:07:14;97.40;;;54.40;;
67640;SDS011;54434;50.096;20.082;2023-09-19T03:09:50;104.30;;;59.20;;
67640;SDS011;54434;50.096;20.082;2023-09-19T03:12:28;52.10;;;31.50;;
67640;SDS011;54434;50.096;20.082;2023-09-19T03:15:09;50.50;;;29.30;;
67640;SDS011;54434;50.096;20.082;2023-09-19T03:17:48;46.00;;;28.50;;
67640;SDS011;54434;50.096;20.082;2023-09-19T03:20:26;47.10;;;27.70;;
67640;SDS011;54434;50.096;20.082;2023-09-19T03:23:03;85.90;;;49.80;;
67640;SDS011;54434;50.096;20.082;2023-09-19T03:25:42;44.70;;;29.40;;
67640;SDS011;54434;50.096;20.082;2023-09-19T03:28:18;49.50;;;27.80;;
67640;SDS011;54434;50.096;20.082;2023-09-19T03:31:06;45.10;;;30.00;;
67640;SDS011;54434;50.096;20.082;2023-09-19T03:33:43;70.20;;;39.60;;
67640;SDS011;54434;50.096;20.082;2023-09-19T03:36:20;137.40;;;72.50;;
67640;SDS011;54434;50.096;20.082;2023-09-19T03:38:57;106.10;;;56.20;;
67640;SDS011;54434;50.096;20.082;2023-09-19T03:41:34;64.30;;;35.50;;
67640;SDS011;54434;50.096;20.082;2023-09-19T03:44:11;58.60;;;34.20;;
67640;SDS011;54434;50.096;20.082;2023-09-19T03:46:48;62.70;;;33.60;;
67640;SDS011;54434;50.096;20.082;2023-09-19T03:49:25;60.30;;;32.60;;
67640;SDS011;54434;50.096;20.082;2023-09-19T03:52:03;51.50;;;32.80;;
67640;SDS011;54434;50.096;20.082;2023-09-19T03:54:40;228.20;;;122.70;;
67640;SDS011;54434;50.096;20.082;2023-09-19T03:57:17;79.10;;;45.70;;
67640;SDS011;54434;50.096;20.082;2023-09-19T03:59:56;63.40;;;36.20;;
67640;SDS011;54434;50.096;20.082;2023-09-19T04:02:33;63.50;;;35.90;;
67640;SDS011;54434;50.096;20.082;2023-09-19T04:05:10;64.00;;;34.70;;
67640;SDS011;54434;50.096;20.082;2023-09-19T04:07:46;67.30;;;37.80;;
67640;SDS011;54434;50.096;20.082;2023-09-19T04:10:23;69.10;;;37.00;;
67640;SDS011;54434;50.096;20.082;2023-09-19T04:13:00;68.10;;;36.90;;
67640;SDS011;54434;50.096;20.082;2023-09-19T04:15:37;71.60;;;37.20;;
67640;SDS011;54434;50.096;20.082;2023-09-19T04:18:14;69.20;;;36.60;;
67640;SDS011;54434;50.096;20.082;2023-09-19T04:20:52;67.00;;;36.30;;
67640;SDS011;54434;50.096;20.082;2023-09-19T04:23:29;60.60;;;35.30;;
67640;SDS011;54434;50.096;20.082;2023-09-19T04:26:06;71.90;;;35.10;;
67640;SDS011;54434;50.096;20.082;2023-09-19T04:28:43;65.60;;;34.10;;
67640;SDS011;54434;50.096;20.082;2023-09-19T04:31:20;57.10;;;33.30;;
67640;SDS011;54434;50.096;20.082;2023-09-19T04:33:57;54.80;;;33.10;;
67640;SDS011;54434;50.096;20.082;2023-09-19T04:36:38;43.10;;;27.20;;
67640;SDS011;54434;50.096;20.082;2023-09-19T04:39:15;35.10;;;23.10;;
67640;SDS011;54434;50.096;20.082;2023-09-19T04:41:51;31.20;;;21.50;;
67640;SDS011;54434;50.096;20.082;2023-09-19T04:44:28;29.50;;;21.20;;
67640;SDS011;54434;50.096;20.082;2023-09-19T04:47:05;27.50;;;18.50;;
67640;SDS011;54434;50.096;20.082;2023-09-19T04:49:41;28.90;;;19.10;;
67640;SDS011;54434;50.096;20.082;2023-09-19T04:52:18;26.20;;;18.00;;
67640;SDS011;54434;50.096;20.082;2023-09-19T04:54:54;22.80;;;17.00;;
67640;SDS011;54434;50.096;20.082;2023-09-19T04:57:31;27.20;;;17.70;;
67640;SDS011;54434;50.096;20.082;2023-09-19T05:00:10;26.60;;;17.90;;
67640;SDS011;54434;50.096;20.082;2023-09-19T05:02:52;25.70;;;17.50;;
67640;SDS011;54434;50.096;20.082;2023-09-19T05:05:30;22.80;;;16.90;;
67640;SDS011;54434;50.096;20.082;2023-09-19T05:08:08;24.70;;;18.30;;
67640;SDS011;54434;50.096;20.082;2023-09-19T05:10:47;25.50;;;18.90;;
67640;SDS011;54434;50.096;20.082;2023-09-19T05:13:24;28.00;;;20.40;;
67640;SDS011;54434;50.096;20.082;2023-09-19T05:16:04;30.70;;;21.40;;
67640;SDS011;54434;50.096;20.082;2023-09-19T05:18:43;33.70;;;22.30;;
67640;SDS011;54434;50.096;20.082;2023-09-19T05:21:20;34.80;;;22.90;;
67640;SDS011;54434;50.096;20.082;2023-09-19T05:23:56;35.10;;;23.70;;
67640;SDS011;54434;50.096;20.082;2023-09-19T05:26:33;35.00;;;23.30;;
67640;SDS011;54434;50.096;20.082;2023-09-19T05:29:10;36.00;;;24.10;;
67640;SDS011;54434;50.096;20.082;2023-09-19T05:31:47;32.90;;;22.90;;
67640;SDS011;54434;50.096;20.082;2023-09-19T05:34:24;35.30;;;23.50;;
67640;SDS011;54434;50.096;20.082;2023-09-19T05:37:04;36.20;;;23.40;;
67640;SDS011;54434;50.096;20.082;2023-09-19T05:39:41;32.30;;;22.60;;
67640;SDS011;54434;50.096;20.082;2023-09-19T05:42:18;31.60;;;22.80;;
67640;SDS011;54434;50.096;20.082;2023-09-19T05:44:54;31.30;;;21.90;;
67640;SDS011;54434;50.096;20.082;2023-09-19T05:47:32;31.40;;;22.00;;
67640;SDS011;54434;50.096;20.082;2023-09-19T05:50:10;28.80;;;21.00;;
67640;SDS011;54434;50.096;20.082;2023-09-19T05:52:54;30.30;;;21.20;;
67640;SDS011;54434;50.096;20.082;2023-09-19T05:55:31;31.80;;;21.80;;
67640;SDS011;54434;50.096;20.082;2023-09-19T05:58:08;30.30;;;21.40;;
67640;SDS011;54434;50.096;20.082;2023-09-19T06:00:47;30.00;;;22.50;;
67640;SDS011;54434;50.096;20.082;2023-09-19T06:03:25;29.50;;;21.10;;
67640;SDS011;54434;50.096;20.082;2023-09-19T06:06:03;30.10;;;21.50;;
67640;SDS011;54434;50.096;20.082;2023-09-19T06:08:40;34.20;;;21.90;;
67640;SDS011;54434;50.096;20.082;2023-09-19T06:11:18;28.10;;;20.50;;
67640;SDS011;54434;50.096;20.082;2023-09-19T06:13:55;34.20;;;21.30;;
67640;SDS011;54434;50.096;20.082;2023-09-19T06:16:33;30.70;;;20.90;;
67640;SDS011;54434;50.096;20.082;2023-09-19T06:19:11;32.50;;;20.50;;
67640;SDS011;54434;50.096;20.082;2023-09-19T06:21:48;31.90;;;20.60;;
67640;SDS011;54434;50.096;20.082;2023-09-19T06:24:24;28.50;;;19.90;;
67640;SDS011;54434;50.096;20.082;2023-09-19T06:27:02;29.50;;;18.60;;
67640;SDS011;54434;50.096;20.082;2023-09-19T06:29:40;27.60;;;19.60;;
67640;SDS011;54434;50.096;20.082;2023-09-19T06:32:17;28.50;;;19.70;;
67640;SDS011;54434;50.096;20.082;2023-09-19T06:34:56;26.80;;;19.00;;
67640;SDS011;54434;50.096;20.082;2023-09-19T06:37:33;28.70;;;19.00;;
67640;SDS011;54434;50.096;20.082;2023-09-19T06:40:13;26.40;;;19.30;;
67640;SDS011;54434;50.096;20.082;2023-09-19T06:42:53;26.60;;;18.40;;
67640;SDS011;54434;50.096;20.082;2023-09-19T06:45:30;28.50;;;18.50;;
67640;SDS011;54434;50.096;20.082;2023-09-19T06:48:09;26.40;;;18.70;;
67640;SDS011;54434;50.096;20.082;2023-09-19T06:50:46;25.20;;;18.40;;
67640;SDS011;54434;50.096;20.082;2023-09-19T06:53:22;23.70;;;18.40;;
67640;SDS011;54434;50.096;20.082;2023-09-19T06:55:59;26.60;;;18.70;;
67640;SDS011;54434;50.096;20.082;2023-09-19T06:58:36;26.90;;;18.90;;
67640;SDS011;54434;50.096;20.082;2023-09-19T07:01:13;28.30;;;18.50;;
67640;SDS011;54434;50.096;20.082;2023-09-19T07:03:49;28.90;;;19.30;;
67640;SDS011;54434;50.096;20.082;2023-09-19T07:06:27;27.30;;;19.10;;
67640;SDS011;54434;50.096;20.082;2023-09-19T07:09:04;28.90;;;20.00;;
67640;SDS011;54434;50.096;20.082;2023-09-19T07:11:41;25.20;;;19.00;;
67640;SDS011;54434;50.096;20.082;2023-09-19T07:14:18;25.70;;;19.30;;
67640;SDS011;54434;50.096;20.082;2023-09-19T07:16:55;26.40;;;19.60;;
67640;SDS011;54434;50.096;20.082;2023-09-19T07:19:33;30.90;;;19.90;;
67640;SDS011;54434;50.096;20.082;2023-09-19T07:22:09;29.60;;;19.60;;
67640;SDS011;54434;50.096;20.082;2023-09-19T07:24:46;30.40;;;20.00;;
67640;SDS011;54434;50.096;20.082;2023-09-19T07:27:23;31.00;;;19.80;;
67640;SDS011;54434;50.096;20.082;2023-09-19T07:29:59;28.10;;;19.50;;
67640;SDS011;54434;50.096;20.082;2023-09-19T07:32:35;28.20;;;19.50;;
67640;SDS011;54434;50.096;20.082;2023-09-19T07:35:14;27.80;;;19.80;;
67640;SDS011;54434;50.096;20.082;2023-09-19T07:37:53;26.70;;;19.10;;
67640;SDS011;54434;50.096;20.082;2023-09-19T07:40:30;27.50;;;19.70;;
67640;SDS011;54434;50.096;20.082;2023-09-19T07:43:07;26.90;;;19.80;;
67640;SDS011;54434;50.096;20.082;2023-09-19T07:45:43;25.50;;;18.70;;
67640;SDS011;54434;50.096;20.082;2023-09-19T07:48:20;26.20;;;18.50;;
67640;SDS011;54434;50.096;20.082;2023-09-19T07:51:03;25.10;;;18.50;;
67640;SDS011;54434;50.096;20.082;2023-09-19T07:53:40;27.50;;;19.10;;
67640;SDS011;54434;50.096;20.082;2023-09-19T07:56:17;24.60;;;18.70;;
67640;SDS011;54434;50.096;20.082;2023-09-19T07:58:54;26.60;;;19.40;;
67640;SDS011;54434;50.096;20.082;2023-09-19T08:01:32;23.90;;;18.50;;
67640;SDS011;54434;50.096;20.082;2023-09-19T08:04:10;23.10;;;16.80;;
67640;SDS011;54434;50.096;20.082;2023-09-19T08:06:47;22.10;;;16.20;;
67640;SDS011;54434;50.096;20.082;2023-09-19T08:09:26;21.60;;;15.70;;
67640;SDS011;54434;50.096;20.082;2023-09-19T08:12:07;23.10;;;16.40;;
67640;SDS011;54434;50.096;20.082;2023-09-19T08:14:44;22.50;;;15.70;;
67640;SDS011;54434;50.096;20.082;2023-09-19T08:17:21;19.90;;;14.90;;
67640;SDS011;54434;50.096;20.082;2023-09-19T08:19:58;19.10;;;14.20;;
67640;SDS011;54434;50.096;20.082;2023-09-19T08:22:36;18.00;;;13.80;;
67640;SDS011;54434;50.096;20.082;2023-09-19T08:25:13;17.90;;;14.50;;
67640;SDS011;54434;50.096;20.082;2023-09-19T08:27:52;18.80;;;12.20;;
67640;SDS011;54434;50.096;20.082;2023-09-19T08:30:31;17.00;;;11.20;;
67640;SDS011;54434;50.096;20.082;2023-09-19T08:33:08;14.60;;;11.00;;
67640;SDS011;54434;50.096;20.082;2023-09-19T08:35:45;12.10;;;9.10;;
67640;SDS011;54434;50.096;20.082;2023-09-19T08:38:21;13.80;;;9.10;;
67640;SDS011;54434;50.096;20.082;2023-09-19T08:41:00;14.80;;;9.70;;
67640;SDS011;54434;50.096;20.082;2023-09-19T08:43:40;16.90;;;10.10;;
67640;SDS011;54434;50.096;20.082;2023-09-19T08:46:17;16.70;;;10.70;;
67640;SDS011;54434;50.096;20.082;2023-09-19T08:49:04;16.50;;;11.00;;
67640;SDS011;54434;50.096;20.082;2023-09-19T08:51:46;17.40;;;10.70;;
67640;SDS011;54434;50.096;20.082;2023-09-19T08:54:31;12.70;;;10.30;;
67640;SDS011;54434;50.096;20.082;2023-09-19T08:57:12;17.10;;;10.40;;
67640;SDS011;54434;50.096;20.082;2023-09-19T08:59:55;17.60;;;10.90;;
67640;SDS011;54434;50.096;20.082;2023-09-19T09:02:34;13.80;;;10.40;;
67640;SDS011;54434;50.096;20.082;2023-09-19T09:05:14;16.50;;;10.20;;
67640;SDS011;54434;50.096;20.082;2023-09-19T09:07:57;14.70;;;10.00;;
67640;SDS011;54434;50.096;20.082;2023-09-19T09:10:34;15.70;;;10.00;;
67640;SDS011;54434;50.096;20.082;2023-09-19T09:13:14;14.00;;;9.70;;
67640;SDS011;54434;50.096;20.082;2023-09-19T09:15:51;16.00;;;9.50;;
67640;SDS011;54434;50.096;20.082;2023-09-19T09:18:29;12.80;;;8.90;;
67640;SDS011;54434;50.096;20.082;2023-09-19T09:21:06;13.40;;;9.20;;
67640;SDS011;54434;50.096;20.082;2023-09-19T09:23:46;14.50;;;9.70;;
67640;SDS011;54434;50.096;20.082;2023-09-19T09:26:43;12.40;;;9.60;;
67640;SDS011;54434;50.096;20.082;2023-09-19T09:29:42;15.30;;;10.80;;
67640;SDS011;54434;50.096;20.082;2023-09-19T09:32:25;18.00;;;11.20;;
67640;SDS011;54434;50.096;20.082;2023-09-19T09:35:11;19.30;;;11.00;;
67640;SDS011;54434;50.096;20.082;2023-09-19T09:38:00;16.80;;;11.60;;
67640;SDS011;54434;50.096;20.082;2023-09-19T09:40:54;16.30;;;12.80;;
67640;SDS011;54434;50.096;20.082;2023-09-19T09:43:37;22.90;;;14.00;;
67640;SDS011;54434;50.096;20.082;2023-09-19T09:46:17;19.60;;;14.40;;
67640;SDS011;54434;50.096;20.082;2023-09-19T09:49:13;20.80;;;14.50;;
67640;SDS011;54434;50.096;20.082;2023-09-19T09:52:06;19.20;;;13.40;;
67640;SDS011;54434;50.096;20.082;2023-09-19T09:55:03;23.30;;;13.70;;
67640;SDS011;54434;50.096;20.082;2023-09-19T09:57:41;23.90;;;14.90;;
67640;SDS011;54434;50.096;20.082;2023-09-19T10:00:56;19.30;;;13.10;;
67640;SDS011;54434;50.096;20.082;2023-09-19T10:03:37;19.40;;;12.60;;
67640;SDS011;54434;50.096;20.082;2023-09-19T10:06:19;15.10;;;11.00;;
67640;SDS011;54434;50.096;20.082;2023-09-19T10:09:05;15.10;;;11.50;;
67640;SDS011;54434;50.096;20.082;2023-09-19T10:11:48;15.00;;;10.20;;
67640;SDS011;54434;50.096;20.082;2023-09-19T10:14:46;12.30;;;9.60;;
67640;SDS011;54434;50.096;20.082;2023-09-19T10:17:48;15.10;;;9.50;;
67640;SDS011;54434;50.096;20.082;2023-09-19T10:20:29;13.40;;;9.40;;
67640;SDS011;54434;50.096;20.082;2023-09-19T10:23:12;15.30;;;8.90;;
67640;SDS011;54434;50.096;20.082;2023-09-19T10:25:56;11.20;;;8.00;;
67640;SDS011;54434;50.096;20.082;2023-09-19T10:28:36;14.80;;;7.20;;
67640;SDS011;54434;50.096;20.082;2023-09-19T10:31:14;11.70;;;7.80;;
67640;SDS011;54434;50.096;20.082;2023-09-19T10:33:58;14.00;;;7.20;;
67640;SDS011;54434;50.096;20.082;2023-09-19T10:36:38;10.10;;;7.00;;
67640;SDS011;54434;50.096;20.082;2023-09-19T10:39:19;10.60;;;6.40;;
67640;SDS011;54434;50.096;20.082;2023-09-19T10:42:01;11.20;;;6.50;;
67640;SDS011;54434;50.096;20.082;2023-09-19T10:44:42;10.50;;;6.20;;
67640;SDS011;54434;50.096;20.082;2023-09-19T10:47:20;8.70;;;6.40;;
67640;SDS011;54434;50.096;20.082;2023-09-19T10:49:58;9.10;;;5.80;;
67640;SDS011;54434;50.096;20.082;2023-09-19T10:52:41;8.40;;;5.80;;
67640;SDS011;54434;50.096;20.082;2023-09-19T10:55:20;8.20;;;5.30;;
67640;SDS011;54434;50.096;20.082;2023-09-19T10:57:58;10.40;;;5.70;;
67640;SDS011;54434;50.096;20.082;2023-09-19T11:00:52;10.60;;;5.90;;
67640;SDS011;54434;50.096;20.082;2023-09-19T11:03:29;9.30;;;5.80;;
67640;SDS011;54434;50.096;20.082;2023-09-19T11:06:13;7.40;;;5.60;;
67640;SDS011;54434;50.096;20.082;2023-09-19T11:08:57;9.70;;;5.50;;
67640;SDS011;54434;50.096;20.082;2023-09-19T11:11:55;8.10;;;5.70;;
67640;SDS011;54434;50.096;20.082;2023-09-19T11:14:43;9.80;;;6.10;;
67640;SDS011;54434;50.096;20.082;2023-09-19T11:17:36;9.60;;;6.30;;
67640;SDS011;54434;50.096;20.082;2023-09-19T11:20:34;10.00;;;6.80;;
67640;SDS011;54434;50.096;20.082;2023-09-19T11:23:25;11.90;;;6.80;;
67640;SDS011;54434;50.096;20.082;2023-09-19T11:26:01;11.10;;;7.00;;
67640;SDS011;54434;50.096;20.082;2023-09-19T11:28:38;9.60;;;6.60;;
67640;SDS011;54434;50.096;20.082;2023-09-19T11:31:49;10.10;;;7.00;;
67640;SDS011;54434;50.096;20.082;2023-09-19T11:34:47;10.10;;;7.60;;
67640;SDS011;54434;50.096;20.082;2023-09-19T11:38:01;10.20;;;7.00;;
67640;SDS011;54434;50.096;20.082;2023-09-19T11:40:52;11.40;;;7.00;;
67640;SDS011;54434;50.096;20.082;2023-09-19T11:44:35;13.40;;;7.40;;
67640;SDS011;54434;50.096;20.082;2023-09-19T11:47:15;10.00;;;7.80;;
67640;SDS011;54434;50.096;20.082;2023-09-19T11:49:55;11.80;;;8.00;;
67640;SDS011;54434;50.096;20.082;2023-09-19T11:52:32;12.30;;;7.90;;
67640;SDS011;54434;50.096;20.082;2023-09-19T11:55:11;10.40;;;8.10;;
67640;SDS011;54434;50.096;20.082;2023-09-19T11:57:48;10.50;;;7.80;;
67640;SDS011;54434;50.096;20.082;2023-09-19T12:00:25;10.90;;;8.10;;
67640;SDS011;54434;50.096;20.082;2023-09-19T12:03:09;11.60;;;8.20;;
67640;SDS011;54434;50.096;20.082;2023-09-19T12:05:48;11.10;;;8.00;;
67640;SDS011;54434;50.096;20.082;2023-09-19T12:08:25;12.00;;;8.20;;
67640;SDS011;54434;50.096;20.082;2023-09-19T12:11:05;12.40;;;8.30;;
67640;SDS011;54434;50.096;20.082;2023-09-19T12:16:24;13.90;;;7.80;;
67640;SDS011;54434;50.096;20.082;2023-09-19T12:19:21;11.30;;;7.40;;
67640;SDS011;54434;50.096;20.082;2023-09-19T12:22:02;10.90;;;7.00;;
67640;SDS011;54434;50.096;20.082;2023-09-19T12:24:39;11.40;;;7.50;;
67640;SDS011;54434;50.096;20.082;2023-09-19T12:27:18;9.10;;;6.90;;
67640;SDS011;54434;50.096;20.082;2023-09-19T12:29:55;10.30;;;7.50;;
67640;SDS011;54434;50.096;20.082;2023-09-19T12:32:42;9.50;;;6.80;;
67640;SDS011;54434;50.096;20.082;2023-09-19T12:35:32;11.10;;;6.70;;
67640;SDS011;54434;50.096;20.082;2023-09-19T12:38:09;10.60;;;6.70;;
67640;SDS011;54434;50.096;20.082;2023-09-19T12:40:48;11.50;;;7.10;;
67640;SDS011;54434;50.096;20.082;2023-09-19T12:43:26;12.80;;;6.60;;
67640;SDS011;54434;50.096;20.082;2023-09-19T12:46:07;9.20;;;6.50;;
67640;SDS011;54434;50.096;20.082;2023-09-19T12:48:43;10.80;;;6.50;;
67640;SDS011;54434;50.096;20.082;2023-09-19T12:51:21;9.30;;;7.00;;
67640;SDS011;54434;50.096;20.082;2023-09-19T12:54:03;14.20;;;7.40;;
67640;SDS011;54434;50.096;20.082;2023-09-19T12:56:44;11.10;;;7.40;;
67640;SDS011;54434;50.096;20.082;2023-09-19T12:59:30;9.40;;;7.30;;
67640;SDS011;54434;50.096;20.082;2023-09-19T13:02:12;10.80;;;7.80;;
67640;SDS011;54434;50.096;20.082;2023-09-19T13:04:56;10.70;;;7.60;;
67640;SDS011;54434;50.096;20.082;2023-09-19T13:07:47;13.70;;;8.30;;
67640;SDS011;54434;50.096;20.082;2023-09-19T13:10:25;13.40;;;8.00;;
67640;SDS011;54434;50.096;20.082;2023-09-19T13:13:24;11.20;;;7.40;;
67640;SDS011;54434;50.096;20.082;2023-09-19T13:16:03;11.20;;;7.70;;
67640;SDS011;54434;50.096;20.082;2023-09-19T13:18:47;12.30;;;8.10;;
67640;SDS011;54434;50.096;20.082;2023-09-19T13:21:34;14.80;;;8.10;;
67640;SDS011;54434;50.096;20.082;2023-09-19T13:24:24;10.70;;;7.60;;
67640;SDS011;54434;50.096;20.082;2023-09-19T13:27:00;12.30;;;7.80;;
67640;SDS011;54434;50.096;20.082;2023-09-19T13:29:38;12.00;;;7.60;;
67640;SDS011;54434;50.096;20.082;2023-09-19T13:32:15;10.80;;;7.90;;
67640;SDS011;54434;50.096;20.082;2023-09-19T13:34:51;11.50;;;7.30;;
67640;SDS011;54434;50.096;20.082;2023-09-19T13:37:28;10.80;;;7.40;;
67640;SDS011;54434;50.096;20.082;2023-09-19T13:40:06;10.80;;;7.70;;
67640;SDS011;54434;50.096;20.082;2023-09-19T13:42:44;10.90;;;7.20;;
67640;SDS011;54434;50.096;20.082;2023-09-19T13:45:21;11.00;;;7.80;;
67640;SDS011;54434;50.096;20.082;2023-09-19T13:48:00;9.60;;;7.40;;
67640;SDS011;54434;50.096;20.082;2023-09-19T13:50:37;10.40;;;7.50;;
67640;SDS011;54434;50.096;20.082;2023-09-19T13:53:16;11.60;;;8.10;;
67640;SDS011;54434;50.096;20.082;2023-09-19T13:55:52;12.90;;;7.60;;
67640;SDS011;54434;50.096;20.082;2023-09-19T13:58:29;11.10;;;7.70;;
67640;SDS011;54434;50.096;20.082;2023-09-19T14:01:07;14.20;;;7.90;;
67640;SDS011;54434;50.096;20.082;2023-09-19T14:03:46;12.60;;;7.20;;
67640;SDS011;54434;50.096;20.082;2023-09-19T14:06:23;10.90;;;7.20;;
67640;SDS011;54434;50.096;20.082;2023-09-19T14:09:00;11.40;;;7.60;;
67640;SDS011;54434;50.096;20.082;2023-09-19T14:11:37;10.90;;;7.80;;
67640;SDS011;54434;50.096;20.082;2023-09-19T14:14:15;12.80;;;8.00;;
67640;SDS011;54434;50.096;20.082;2023-09-19T14:16:52;12.60;;;7.20;;
67640;SDS011;54434;50.096;20.082;2023-09-19T14:19:29;13.60;;;8.00;;
67640;SDS011;54434;50.096;20.082;2023-09-19T14:22:06;12.90;;;6.90;;
67640;SDS011;54434;50.096;20.082;2023-09-19T14:24:44;11.20;;;7.90;;
67640;SDS011;54434;50.096;20.082;2023-09-19T14:27:21;11.60;;;8.10;;
67640;SDS011;54434;50.096;20.082;2023-09-19T14:29:58;13.00;;;7.40;;
67640;SDS011;54434;50.096;20.082;2023-09-19T14:32:35;12.50;;;7.80;;
67640;SDS011;54434;50.096;20.082;2023-09-19T14:35:12;11.90;;;7.50;;
67640;SDS011;54434;50.096;20.082;2023-09-19T14:37:49;9.80;;;7.30;;
67640;SDS011;54434;50.096;20.082;2023-09-19T14:40:26;11.50;;;7.10;;
67640;SDS011;54434;50.096;20.082;2023-09-19T14:43:03;15.20;;;7.60;;
67640;SDS011;54434;50.096;20.082;2023-09-19T14:45:42;10.90;;;7.30;;
67640;SDS011;54434;50.096;20.082;2023-09-19T14:48:18;8.80;;;6.30;;
67640;SDS011;54434;50.096;20.082;2023-09-19T14:50:57;10.40;;;6.60;;
67640;SDS011;54434;50.096;20.082;2023-09-19T14:56:13;9.80;;;6.50;;
67640;SDS011;54434;50.096;20.082;2023-09-19T14:58:52;10.30;;;6.40;;
67640;SDS011;54434;50.096;20.082;2023-09-19T15:01:29;11.10;;;6.30;;
67640;SDS011;54434;50.096;20.082;2023-09-19T15:04:06;10.20;;;6.50;;
67640;SDS011;54434;50.096;20.082;2023-09-19T15:06:43;11.00;;;6.40;;
67640;SDS011;54434;50.096;20.082;2023-09-19T15:09:22;10.40;;;6.50;;
67640;SDS011;54434;50.096;20.082;2023-09-19T15:11:59;12.20;;;6.60;;
67640;SDS011;54434;50.096;20.082;2023-09-19T15:14:36;10.00;;;6.30;;
67640;SDS011;54434;50.096;20.082;2023-09-19T15:17:12;14.10;;;7.30;;
67640;SDS011;54434;50.096;20.082;2023-09-19T15:19:51;10.00;;;6.90;;
67640;SDS011;54434;50.096;20.082;2023-09-19T15:22:27;11.00;;;6.80;;
67640;SDS011;54434;50.096;20.082;2023-09-19T15:25:05;15.00;;;8.20;;
67640;SDS011;54434;50.096;20.082;2023-09-19T15:27:42;12.50;;;7.40;;
67640;SDS011;54434;50.096;20.082;2023-09-19T15:30:19;10.30;;;7.00;;
67640;SDS011;54434;50.096;20.082;2023-09-19T15:32:56;9.30;;;6.20;;
67640;SDS011;54434;50.096;20.082;2023-09-19T15:35:33;11.00;;;7.30;;
67640;SDS011;54434;50.096;20.082;2023-09-19T15:38:11;11.00;;;7.60;;